createdAt,value
2018-11-29T00:00:29.250Z,7.70
2018-11-29T00:02:57.528Z,7.70
2018-11-29T00:05:25.840Z,7.70
2018-11-29T00:07:54.176Z,7.80
2018-11-29T00:10:22.452Z,7.70
2018-11-29T00:12:50.741Z,7.70
2018-11-29T00:15:19.016Z,7.80
2018-11-29T00:17:47.301Z,7.80
2018-11-29T00:20:17.364Z,7.80
2018-11-29T00:22:46.364Z,7.80
2018-11-29T00:25:15.943Z,7.90
2018-11-29T00:27:44.533Z,7.90
2018-11-29T00:30:19.161Z,7.90
2018-11-29T00:32:47.454Z,8.00
2018-11-29T00:35:17.444Z,8.00
2018-11-29T00:37:45.772Z,8.00
2018-11-29T00:40:16.604Z,8.00
2018-11-29T00:42:44.931Z,8.10
2018-11-29T00:45:15.060Z,8.10
2018-11-29T00:47:43.617Z,8.10
2018-11-29T00:50:12.717Z,8.10
2018-11-29T00:52:42.742Z,8.20
2018-11-29T00:55:12.821Z,8.20
2018-11-29T00:57:41.113Z,8.20
2018-11-29T01:00:12.597Z,8.30
2018-11-29T01:02:40.880Z,8.30
2018-11-29T01:05:09.189Z,8.30
2018-11-29T01:07:37.471Z,8.30
2018-11-29T01:10:12.961Z,8.30
2018-11-29T01:12:41.289Z,8.30
2018-11-29T01:15:12.364Z,8.40
2018-11-29T01:17:40.625Z,8.30
2018-11-29T01:20:10.381Z,8.40
2018-11-29T01:22:38.667Z,8.40
2018-11-29T01:25:08.350Z,8.30
2018-11-29T01:27:36.613Z,8.40
2018-11-29T01:30:08.838Z,8.40
2018-11-29T01:32:37.106Z,8.40
2018-11-29T01:35:05.906Z,8.40
2018-11-29T01:37:34.178Z,8.40
2018-11-29T01:40:02.482Z,8.40
2018-11-29T01:42:30.747Z,8.40
2018-11-29T01:44:59.026Z,8.40
2018-11-29T01:47:27.294Z,8.40
2018-11-29T01:49:55.538Z,8.40
2018-11-29T01:52:23.834Z,8.40
2018-11-29T01:54:52.100Z,8.40
2018-11-29T01:57:20.349Z,8.40
2018-11-29T01:59:48.619Z,8.40
2018-11-29T02:02:17.227Z,8.50
2018-11-29T02:04:45.507Z,8.50
2018-11-29T02:07:13.790Z,8.50
2018-11-29T02:09:42.275Z,8.40
2018-11-29T02:12:10.519Z,8.50
2018-11-29T02:14:38.779Z,8.50
2018-11-29T02:17:07.051Z,8.50
2018-11-29T02:19:35.299Z,8.40
2018-11-29T02:22:03.603Z,8.50
2018-11-29T02:24:31.855Z,8.50
2018-11-29T02:27:00.111Z,8.50
2018-11-29T02:29:28.371Z,8.50
2018-11-29T02:31:56.639Z,8.50
2018-11-29T02:34:24.950Z,8.50
2018-11-29T02:36:53.237Z,8.50
2018-11-29T02:39:21.488Z,8.50
2018-11-29T02:41:49.791Z,8.50
2018-11-29T02:44:18.971Z,8.50
2018-11-29T02:46:47.228Z,8.50
2018-11-29T02:51:50.061Z,8.50
2018-11-29T02:54:18.356Z,8.50
2018-11-29T02:56:46.620Z,8.50
2018-11-29T02:59:14.873Z,8.60
2018-11-29T03:01:43.140Z,8.60
2018-11-29T03:04:11.420Z,8.60
2018-11-29T03:06:39.723Z,8.60
2018-11-29T03:09:08.031Z,8.60
2018-11-29T03:11:36.366Z,8.60
2018-11-29T03:14:04.677Z,8.60
2018-11-29T03:16:32.950Z,8.70
2018-11-29T03:19:01.239Z,8.70
2018-11-29T03:21:29.513Z,8.70
2018-11-29T03:23:57.780Z,8.70
2018-11-29T03:26:26.057Z,8.70
2018-11-29T03:28:54.316Z,8.80
2018-11-29T03:31:22.577Z,8.80
2018-11-29T03:33:50.868Z,8.70
2018-11-29T03:36:19.138Z,8.70
2018-11-29T03:38:47.404Z,8.70
2018-11-29T03:41:15.673Z,8.70
2018-11-29T03:43:43.949Z,8.70
2018-11-29T03:46:12.361Z,8.70
2018-11-29T03:48:40.618Z,8.70
2018-11-29T03:51:08.964Z,8.60
2018-11-29T03:53:37.265Z,8.60
2018-11-29T03:56:06.084Z,8.60
2018-11-29T03:58:34.759Z,8.60
2018-11-29T04:01:03.060Z,8.60
2018-11-29T04:03:31.332Z,8.60
2018-11-29T04:05:59.592Z,8.50
2018-11-29T04:08:27.860Z,8.60
2018-11-29T04:10:56.156Z,8.60
2018-11-29T04:13:24.433Z,8.60
2018-11-29T04:15:52.681Z,8.60
2018-11-29T04:18:22.517Z,8.60
2018-11-29T04:20:51.293Z,8.60
2018-11-29T04:23:21.838Z,8.70
2018-11-29T04:25:50.637Z,8.70
2018-11-29T04:28:20.192Z,8.70
2018-11-29T04:30:49.573Z,8.70
2018-11-29T04:33:19.539Z,8.60
2018-11-29T04:35:48.833Z,8.70
2018-11-29T04:38:19.109Z,8.70
2018-11-29T04:40:48.469Z,8.70
2018-11-29T04:43:19.849Z,8.70
2018-11-29T04:45:59.653Z,8.70
2018-11-29T04:48:29.044Z,8.80
2018-11-29T04:50:58.173Z,8.80
2018-11-29T04:53:28.986Z,8.80
2018-11-29T04:55:58.033Z,8.80
2018-11-29T04:58:26.989Z,8.80
2018-11-29T05:01:00.481Z,8.80
2018-11-29T05:03:29.457Z,8.80
2018-11-29T05:05:59.265Z,8.80
2018-11-29T05:08:29.830Z,8.80
2018-11-29T05:10:58.734Z,8.80
2018-11-29T05:13:29.029Z,8.80
2018-11-29T05:15:59.122Z,8.80
2018-11-29T05:18:28.841Z,8.80
2018-11-29T05:20:57.733Z,8.80
2018-11-29T05:23:27.126Z,8.70
2018-11-29T05:25:55.889Z,8.80
2018-11-29T05:28:24.797Z,8.80
2018-11-29T05:30:54.285Z,8.80
2018-11-29T05:33:25.813Z,8.80
2018-11-29T05:35:55.730Z,8.80
2018-11-29T05:38:24.926Z,8.80
2018-11-29T05:40:55.728Z,8.80
2018-11-29T05:43:25.890Z,8.90
2018-11-29T05:45:54.851Z,8.90
2018-11-29T05:48:25.343Z,8.90
2018-11-29T05:50:54.335Z,8.90
2018-11-29T05:53:23.271Z,8.90
2018-11-29T05:55:53.159Z,8.90
2018-11-29T05:58:29.071Z,8.90
2018-11-29T06:01:26.935Z,8.90
2018-11-29T06:03:57.074Z,8.90
2018-11-29T06:06:28.404Z,8.90
2018-11-29T06:09:02.715Z,8.90
2018-11-29T06:11:34.760Z,8.80
2018-11-29T06:14:08.847Z,8.80
2018-11-29T06:16:45.609Z,8.90
2018-11-29T06:19:20.239Z,8.90
2018-11-29T06:24:37.172Z,8.90
2018-11-29T06:27:11.456Z,8.80
2018-11-29T06:29:45.560Z,8.80
2018-11-29T06:32:14.527Z,8.80
2018-11-29T06:34:50.383Z,8.70
2018-11-29T06:37:22.075Z,8.70
2018-11-29T06:39:51.963Z,8.70
2018-11-29T06:42:23.007Z,8.60
2018-11-29T06:44:51.643Z,8.70
2018-11-29T06:47:21.539Z,8.70
2018-11-29T06:49:50.219Z,8.70
2018-11-29T06:52:20.889Z,8.70
2018-11-29T06:54:49.371Z,8.70
2018-11-29T06:57:17.967Z,8.70
2018-11-29T06:59:46.443Z,8.70
2018-11-29T07:55:38.128Z,9.10
2018-11-29T07:58:26.736Z,9.10
2018-11-29T08:29:07.204Z,9.20
2018-11-29T08:31:37.360Z,9.30
2018-11-29T08:34:17.148Z,9.30
2018-11-29T08:40:09.406Z,9.40
2018-11-29T08:42:41.568Z,9.40
2018-11-29T08:54:15.906Z,9.40
2018-11-29T08:56:48.684Z,9.50
2018-11-29T08:59:25.424Z,9.50
2018-11-29T09:02:01.252Z,9.50
2018-11-29T09:13:42.160Z,9.50
2018-11-29T09:17:54.989Z,9.60
2018-11-29T09:20:42.337Z,9.50
2018-11-29T10:20:46.322Z,9.60
2018-11-29T10:23:14.834Z,9.90
2018-11-29T11:03:08.961Z,9.90
2018-11-29T11:31:15.611Z,10.20
2018-11-29T11:33:43.892Z,10.40
2018-11-29T11:36:12.127Z,10.40
2018-11-29T11:38:40.403Z,10.50
2018-11-29T11:41:08.700Z,10.50
2018-11-29T11:43:36.964Z,10.50
2018-11-29T11:46:05.280Z,10.50
2018-11-29T11:48:33.608Z,10.60
2018-11-29T11:51:01.934Z,10.70
2018-11-29T11:53:30.173Z,10.70
2018-11-29T11:55:58.420Z,10.70
2018-11-29T11:58:26.688Z,10.80
2018-11-29T12:00:54.960Z,10.80
2018-11-29T12:03:23.222Z,10.90
2018-11-29T12:05:51.535Z,10.90
2018-11-29T12:08:19.822Z,11.00
2018-11-29T12:10:48.109Z,11.00
2018-11-29T12:13:16.450Z,11.00
2018-11-29T12:15:44.751Z,11.00
2018-11-29T12:18:13.505Z,11.10
2018-11-29T12:20:41.780Z,11.10
2018-11-29T12:23:10.072Z,11.10
2018-11-29T12:25:38.362Z,11.20
2018-11-29T12:28:06.788Z,11.20
2018-11-29T12:30:41.644Z,11.20
2018-11-29T12:33:10.972Z,11.20
2018-11-29T12:35:40.112Z,11.20
2018-11-29T12:38:08.504Z,11.20
2018-11-29T12:40:36.760Z,11.20
2018-11-29T12:45:55.344Z,11.20
2018-11-29T12:48:23.620Z,11.20
2018-11-29T12:50:51.934Z,11.20
2018-11-29T12:53:20.197Z,11.20
2018-11-29T12:55:48.668Z,11.20
2018-11-29T12:58:17.016Z,11.30
2018-11-29T13:00:45.256Z,11.20
2018-11-29T13:03:13.544Z,11.20
2018-11-29T13:05:41.861Z,11.10
2018-11-29T13:08:10.297Z,11.10
2018-11-29T13:10:38.543Z,10.90
2018-11-29T13:13:06.991Z,10.90
2018-11-29T13:15:35.342Z,10.90
2018-11-29T13:18:06.240Z,10.90
2018-11-29T13:20:34.534Z,10.90
2018-11-29T13:23:03.519Z,10.90
2018-11-29T13:25:31.806Z,10.80
2018-11-29T13:28:00.118Z,10.80
2018-11-29T13:30:28.377Z,10.90
2018-11-29T13:32:57.139Z,10.90
2018-11-29T13:35:34.407Z,10.90
2018-11-29T13:38:04.665Z,10.90
2018-11-29T13:40:32.891Z,10.90
2018-11-29T13:43:01.149Z,10.90
2018-11-29T13:45:29.418Z,10.80
2018-11-29T13:47:57.990Z,10.90
2018-11-29T13:50:26.102Z,10.90
2018-11-29T13:52:54.354Z,10.90
2018-11-29T13:55:22.631Z,11.00
2018-11-29T13:57:51.139Z,11.00
2018-11-29T14:00:20.300Z,10.90
2018-11-29T14:02:50.943Z,11.00
2018-11-29T14:05:19.210Z,11.00
2018-11-29T14:07:47.618Z,11.00
2018-11-29T14:10:17.794Z,10.90
2018-11-29T14:12:46.946Z,10.90
2018-11-29T14:15:17.224Z,10.80
2018-11-29T14:17:45.474Z,10.80
2018-11-29T14:20:14.191Z,10.90
2018-11-29T14:22:42.499Z,10.90
2018-11-29T14:25:11.918Z,10.80
2018-11-29T14:27:40.980Z,10.80
2018-11-29T14:30:18.594Z,10.80
2018-11-29T14:32:46.947Z,10.70
2018-11-29T14:35:15.215Z,10.70
2018-11-29T14:37:43.554Z,10.70
2018-11-29T14:40:14.683Z,10.70
2018-11-29T14:42:42.975Z,10.70
2018-11-29T14:45:13.065Z,10.70
2018-11-29T14:47:41.356Z,10.70
2018-11-29T14:50:46.615Z,10.70
2018-11-29T14:53:14.895Z,10.70
2018-11-29T14:55:43.193Z,10.60
2018-11-29T14:58:12.565Z,10.60
2018-11-29T15:00:40.853Z,10.70
2018-11-29T15:03:12.451Z,10.70
2018-11-29T15:05:40.799Z,10.70
2018-11-29T15:08:09.696Z,10.60
2018-11-29T15:10:38.411Z,10.60
2018-11-29T15:13:09.028Z,10.50
2018-11-29T15:15:37.463Z,10.60
2018-11-29T15:18:06.431Z,10.70
2018-11-29T15:20:43.252Z,10.70
2018-11-29T15:23:12.556Z,10.60
2018-11-29T15:25:40.833Z,10.60
2018-11-29T15:28:09.160Z,10.50
2018-11-29T15:30:37.487Z,10.40
2018-11-29T15:33:06.004Z,10.40
2018-11-29T15:35:34.335Z,10.40
2018-11-29T15:38:02.893Z,10.40
2018-11-29T15:40:31.141Z,10.30
2018-11-29T15:42:59.517Z,10.40
2018-11-29T15:45:28.061Z,10.30
2018-11-29T15:47:56.334Z,10.30
2018-11-29T15:50:24.621Z,10.30
2018-11-29T15:52:52.893Z,10.30
2018-11-29T15:55:22.805Z,10.30
2018-11-29T15:57:52.066Z,10.30
2018-11-29T16:00:25.525Z,10.40
2018-11-29T16:02:54.732Z,10.30
2018-11-29T16:05:23.059Z,10.30
2018-11-29T16:07:51.363Z,10.30
2018-11-29T16:10:23.689Z,10.30
2018-11-29T16:12:52.054Z,10.30
2018-11-29T16:15:21.055Z,10.20
2018-11-29T16:17:50.143Z,10.20
2018-11-29T16:20:21.642Z,10.20
2018-11-29T16:22:50.171Z,10.20
2018-11-29T16:25:18.443Z,10.30
2018-11-29T16:27:46.831Z,10.30
2018-11-29T16:30:52.811Z,10.30
2018-11-29T16:33:29.547Z,10.30
2018-11-29T16:35:57.905Z,10.30
2018-11-29T16:38:26.326Z,10.30
2018-11-29T16:40:54.919Z,10.30
2018-11-29T16:43:23.220Z,10.30
2018-11-29T16:45:51.516Z,10.30
2018-11-29T16:48:20.595Z,10.30
2018-11-29T16:50:49.022Z,10.30
2018-11-29T16:53:17.323Z,10.30
2018-11-29T16:55:45.762Z,10.30
2018-11-29T16:58:16.847Z,10.30
2018-11-29T17:00:45.174Z,10.20
2018-11-29T17:03:13.450Z,10.30
2018-11-29T17:05:41.850Z,10.30
2018-11-29T17:08:10.226Z,10.30
2018-11-29T17:10:38.514Z,10.30
2018-11-29T17:13:09.626Z,10.40
2018-11-29T17:15:38.002Z,10.50
2018-11-29T17:18:06.682Z,10.50
2018-11-29T17:20:35.914Z,10.60
2018-11-29T17:23:04.382Z,10.70
2018-11-29T17:25:32.774Z,10.70
2018-11-29T17:28:01.050Z,10.70
2018-11-29T17:30:29.338Z,10.80
2018-11-29T17:32:58.410Z,10.80
2018-11-29T17:35:26.830Z,10.70
2018-11-29T17:37:56.594Z,10.80
2018-11-29T17:40:24.958Z,10.70
2018-11-29T17:42:55.331Z,10.70
2018-11-29T17:45:25.234Z,10.70
2018-11-29T17:47:54.894Z,10.70
2018-11-29T17:50:25.862Z,10.70
2018-11-29T17:52:54.207Z,10.70
2018-11-29T17:55:22.630Z,10.70
2018-11-29T17:57:50.914Z,10.60
2018-11-29T18:00:22.387Z,10.60
2018-11-29T18:02:50.638Z,10.60
2018-11-29T18:05:18.911Z,10.70
2018-11-29T18:07:47.135Z,10.60
2018-11-29T18:10:16.918Z,10.60
2018-11-29T18:12:45.977Z,10.70
2018-11-29T18:15:15.883Z,10.70
2018-11-29T18:17:44.212Z,10.60
2018-11-29T18:21:15.679Z,10.60
2018-11-29T18:23:46.972Z,10.60
2018-11-29T18:26:12.163Z,10.50
2018-11-29T18:28:40.447Z,10.50
2018-11-29T18:31:08.674Z,10.50
2018-11-29T18:33:36.927Z,10.50
2018-11-29T18:36:05.535Z,10.50
2018-11-29T18:38:33.775Z,10.40
2018-11-29T18:41:02.139Z,10.40
2018-11-29T18:43:30.379Z,10.30
2018-11-29T18:45:58.611Z,10.30
2018-11-29T18:48:26.835Z,10.30
2018-11-29T18:50:55.107Z,10.30
2018-11-29T18:53:23.358Z,10.20
2018-11-29T18:55:51.691Z,10.10
2018-11-29T18:58:20.079Z,10.10
2018-11-29T19:00:48.435Z,10.00
2018-11-29T19:03:16.735Z,10.00
2018-11-29T19:05:44.999Z,10.00
2018-11-29T19:08:13.263Z,10.00
2018-11-29T19:10:41.503Z,10.00
2018-11-29T19:13:11.138Z,9.90
2018-11-29T19:15:39.458Z,9.90
2018-11-29T19:18:10.628Z,9.90
2018-11-29T19:20:37.482Z,9.90
2018-11-29T19:23:06.017Z,9.90
2018-11-29T19:25:34.370Z,9.90
2018-11-29T19:28:02.635Z,9.90
2018-11-29T19:30:37.987Z,9.90
2018-11-29T19:33:17.262Z,9.80
2018-11-29T19:35:43.283Z,9.90
2018-11-29T19:38:11.548Z,9.90
2018-11-29T19:40:39.900Z,9.90
2018-11-29T19:43:08.482Z,9.90
2018-11-29T19:45:36.743Z,9.90
2018-11-29T19:48:06.025Z,10.00
2018-11-29T19:50:34.269Z,9.90
2018-11-29T19:53:03.933Z,9.90
2018-11-29T19:55:33.334Z,9.90
2018-11-29T19:58:01.550Z,9.90
2018-11-29T20:00:29.846Z,9.90
2018-11-29T20:02:58.190Z,9.90
2018-11-29T20:05:26.415Z,10.00
2018-11-29T20:07:54.715Z,10.00
2018-11-29T20:10:23.098Z,10.00
2018-11-29T20:12:59.766Z,10.00
2018-11-29T20:15:28.087Z,10.00
2018-11-29T20:17:56.375Z,10.00
2018-11-29T20:20:24.718Z,10.00
2018-11-29T20:22:52.971Z,10.00
2018-11-29T20:25:22.930Z,10.00
2018-11-29T20:27:51.188Z,10.00
2018-11-29T20:30:20.430Z,10.00
2018-11-29T20:32:49.755Z,10.00
2018-11-29T20:35:18.570Z,10.00
2018-11-29T20:37:47.189Z,10.00
2018-11-29T20:40:18.546Z,10.00
2018-11-29T20:42:48.049Z,10.00
2018-11-29T20:45:19.715Z,9.90
2018-11-29T20:47:47.964Z,9.90
2018-11-29T20:50:18.751Z,9.90
2018-11-29T20:52:47.635Z,9.90
2018-11-29T20:55:20.935Z,9.90
2018-11-29T20:57:49.159Z,9.90
2018-11-29T21:00:17.407Z,9.90
2018-11-29T21:02:45.655Z,9.90
2018-11-29T21:05:15.523Z,9.90
2018-11-29T21:07:45.343Z,9.90
2018-11-29T21:10:18.222Z,9.90
2018-11-29T21:12:46.483Z,9.90
2018-11-29T21:15:14.723Z,9.90
2018-11-29T21:17:42.973Z,9.90
2018-11-29T21:20:12.374Z,9.90
2018-11-29T21:22:41.167Z,9.90
2018-11-29T21:25:18.487Z,9.90
2018-11-29T21:27:46.744Z,10.00
2018-11-29T21:30:15.886Z,10.00
2018-11-29T21:32:44.575Z,10.00
2018-11-29T21:35:15.943Z,10.00
2018-11-29T21:37:44.342Z,10.10
2018-11-29T21:40:21.087Z,10.00
2018-11-29T21:42:49.307Z,10.00
2018-11-29T21:45:17.571Z,10.10
2018-11-29T21:47:45.811Z,10.10
2018-11-29T21:50:14.031Z,10.10
2018-11-29T21:52:42.267Z,10.10
2018-11-29T21:55:10.514Z,10.10
2018-11-29T21:57:38.813Z,10.10
2018-11-29T22:00:13.410Z,10.10
2018-11-29T22:02:43.490Z,10.10
2018-11-29T22:05:11.751Z,10.10
2018-11-29T22:07:39.978Z,10.10
2018-11-29T22:10:08.254Z,10.00
2018-11-29T22:12:36.469Z,10.00
2018-11-29T22:15:05.870Z,10.00
2018-11-29T22:17:34.106Z,10.10
2018-11-29T22:20:02.347Z,10.00
2018-11-29T22:22:30.603Z,10.00
2018-11-29T22:24:58.837Z,10.10
2018-11-29T22:27:27.070Z,10.10
2018-11-29T22:29:55.310Z,10.10
2018-11-29T22:32:23.564Z,10.10
2018-11-29T22:34:51.802Z,10.10
2018-11-29T22:37:20.022Z,10.10
2018-11-29T22:39:48.283Z,10.10
2018-11-29T22:42:16.603Z,10.10
2018-11-29T22:44:44.846Z,10.10
2018-11-29T22:47:13.083Z,10.10
2018-11-29T22:49:41.314Z,10.10
2018-11-29T22:52:09.543Z,10.10
2018-11-29T22:54:37.791Z,10.10
2018-11-29T22:57:06.329Z,10.10
2018-11-29T22:59:34.567Z,10.10
2018-11-29T23:02:02.827Z,10.10
2018-11-29T23:04:31.075Z,10.10
2018-11-29T23:06:59.315Z,10.10
2018-11-29T23:09:27.571Z,10.10
2018-11-29T23:11:55.823Z,10.10
2018-11-29T23:14:24.057Z,10.10
2018-11-29T23:16:52.311Z,10.10
2018-11-29T23:19:20.563Z,10.10
2018-11-29T23:21:48.811Z,10.10
2018-11-29T23:24:17.048Z,10.00
2018-11-29T23:26:45.312Z,10.00
2018-11-29T23:29:13.567Z,10.00
2018-11-29T23:31:41.820Z,10.00
2018-11-29T23:34:10.052Z,10.00
2018-11-29T23:36:38.323Z,10.00
2018-11-29T23:39:07.838Z,10.00
2018-11-29T23:41:36.159Z,10.00
2018-11-29T23:44:04.448Z,10.00
2018-11-29T23:46:32.684Z,9.90
2018-11-29T23:49:00.909Z,9.90
2018-11-29T23:51:29.184Z,9.90
2018-11-29T23:53:57.392Z,9.90
2018-11-29T23:56:25.616Z,9.90
2018-11-29T23:58:53.860Z,9.90
